Terminal Aerodrome Forecast
Issued by NWS

Home | Current Version | Previous Version | Text Only | Print | Product List | Glossary On
Versions: 1 2 3 4 5 6 7 8 9 10 11 12 13 14 15
000
FTUS45 KTFX 231330 AAA
TAFBZN
TAF AMD
KBZN 231330Z 2314/2412 VRB06KT 3SM BR SCT002 OVC060
      TEMPO 2314/2316 1/4SM FZFG OVC002
     FM231800 33006KT 5SM BR SCT010 OVC035
      TEMPO 2323/2403 2SM -SN OVC025
     FM240600 28004KT P6SM OVC050=

USA.gov is the U.S. government's official web portal to all federal, state and local government web resources and services.